createdAt,value
2018-06-09T00:02:21.379Z,97443.00
2018-06-09T00:05:08.164Z,97443.00
2018-06-09T00:07:49.190Z,97447.00
2018-06-09T00:10:27.786Z,97446.00
2018-06-09T00:13:12.904Z,97445.00
2018-06-09T00:15:53.632Z,97452.00
2018-06-09T00:18:33.903Z,97441.00
2018-06-09T00:21:15.860Z,97442.00
2018-06-09T00:24:02.869Z,97447.00
2018-06-09T00:26:47.382Z,97445.00
2018-06-09T00:29:28.125Z,97449.00
2018-06-09T00:32:08.882Z,97445.00
2018-06-09T00:34:51.055Z,97444.00
2018-06-09T00:37:33.170Z,97443.00
2018-06-09T00:40:14.240Z,97443.00
2018-06-09T00:42:58.144Z,97450.00
2018-06-09T00:45:41.513Z,97434.00
2018-06-09T00:48:23.222Z,97435.00
2018-06-09T00:51:04.382Z,97435.00
2018-06-09T00:53:46.124Z,97429.00
2018-06-09T00:56:37.285Z,97427.00
2018-06-09T00:59:17.001Z,97425.00
2018-06-09T01:02:00.885Z,97422.00
2018-06-09T01:04:41.547Z,97421.00
2018-06-09T01:07:20.281Z,97425.00
2018-06-09T02:51:05.419Z,97447.00
2018-06-09T02:53:45.880Z,97446.00
2018-06-09T02:56:27.017Z,97454.00
2018-06-09T02:59:07.745Z,97451.00
2018-06-09T04:25:05.539Z,97485.00
2018-06-09T04:27:47.816Z,97482.00
2018-06-09T04:30:27.817Z,97489.00
2018-06-09T04:33:07.078Z,97486.00
2018-06-09T04:35:45.342Z,97493.00
2018-06-09T06:01:55.965Z,97506.00
2018-06-09T06:04:37.340Z,97501.00
2018-06-09T06:07:14.700Z,97493.00
2018-06-09T06:09:59.462Z,97495.00
2018-06-09T06:12:41.660Z,97500.00
2018-06-09T06:15:24.943Z,97506.00
2018-06-09T06:18:02.282Z,97517.00
2018-06-09T06:20:41.104Z,97523.00
2018-06-09T06:23:21.481Z,97524.00
2018-06-09T06:26:03.841Z,97522.00
2018-06-09T06:28:44.762Z,97517.00
2018-06-09T06:31:27.879Z,97527.00
2018-06-09T06:34:08.702Z,97526.00
2018-06-09T06:36:49.558Z,97529.00
2018-06-09T06:39:31.364Z,97532.00
2018-06-09T06:42:12.298Z,97537.00
2018-06-09T06:44:51.643Z,97540.00
2018-06-09T06:47:33.484Z,97537.00
2018-06-09T06:50:18.939Z,97537.00
2018-06-09T06:53:01.937Z,97539.00
2018-06-09T06:55:40.561Z,97538.00
2018-06-09T06:58:27.221Z,97541.00
2018-06-09T07:01:12.043Z,97542.00
2018-06-09T07:03:50.240Z,97541.00
2018-06-09T07:06:38.381Z,97541.00
2018-06-09T07:09:18.958Z,97534.00
2018-06-09T07:12:02.479Z,97529.00
2018-06-09T07:14:43.438Z,97530.00
2018-06-09T07:17:25.243Z,97529.00
2018-06-09T07:20:10.098Z,97532.00
2018-06-09T07:22:50.561Z,97526.00
2018-06-09T07:25:32.662Z,97526.00
2018-06-09T07:28:16.218Z,97525.00
2018-06-09T07:30:55.280Z,97523.00
2018-06-09T07:33:41.542Z,97515.00
2018-06-09T07:36:24.343Z,97515.00
2018-06-09T07:39:05.783Z,97504.00
2018-06-09T07:41:44.776Z,97503.00
2018-06-09T07:44:25.999Z,97497.00
2018-06-09T07:47:08.040Z,97487.00
2018-06-09T07:49:51.541Z,97489.00
2018-06-09T07:52:33.379Z,97486.00
2018-06-09T07:55:16.281Z,97485.00
2018-06-09T07:58:03.440Z,97481.00
2018-06-09T08:00:43.382Z,97477.00
2018-06-09T08:03:22.439Z,97471.00
2018-06-09T08:06:03.219Z,97472.00
2018-06-09T08:08:41.163Z,97467.00
2018-06-09T08:11:21.857Z,97463.00
2018-06-09T08:14:05.866Z,97460.00
2018-06-09T08:16:49.240Z,97461.00
2018-06-09T08:19:33.905Z,97459.00
2018-06-09T08:22:13.100Z,97458.00
2018-06-09T08:24:53.859Z,97458.00
2018-06-09T08:27:35.540Z,97459.00
2018-06-09T08:30:15.362Z,97452.00
2018-06-09T08:32:52.802Z,97450.00
2018-06-09T08:35:31.505Z,97455.00
2018-06-09T08:38:11.461Z,97455.00
2018-06-09T08:40:52.816Z,97450.00
2018-06-09T08:43:36.258Z,97448.00
2018-06-09T08:46:17.103Z,97443.00
2018-06-09T08:48:57.468Z,97441.00
2018-06-09T08:51:39.120Z,97440.00
2018-06-09T08:54:26.264Z,97445.00
2018-06-09T08:57:06.306Z,97445.00
2018-06-09T08:59:49.696Z,97441.00
2018-06-09T09:02:30.777Z,97442.00
2018-06-09T09:05:13.624Z,97448.00
2018-06-09T09:07:57.285Z,97445.00
2018-06-09T09:10:40.482Z,97449.00
2018-06-09T09:13:18.924Z,97452.00
2018-06-09T09:16:03.779Z,97448.00
2018-06-09T09:18:42.281Z,97455.00
2018-06-09T09:21:22.818Z,97453.00
2018-06-09T09:24:02.234Z,97449.00
2018-06-09T09:26:44.757Z,97438.00
2018-06-09T09:29:25.445Z,97442.00
2018-06-09T09:32:06.500Z,97434.00
2018-06-09T09:34:49.141Z,97436.00
2018-06-09T09:37:32.784Z,97433.00
2018-06-09T09:40:11.706Z,97436.00
2018-06-09T09:42:52.039Z,97436.00
2018-06-09T09:45:31.200Z,97436.00
2018-06-09T09:48:10.480Z,97431.00
2018-06-09T09:50:48.739Z,97437.00
2018-06-09T09:53:32.081Z,97441.00
2018-06-09T09:56:17.385Z,97443.00
2018-06-09T09:58:55.941Z,97444.00
2018-06-09T10:01:38.003Z,97445.00
2018-06-09T10:04:15.820Z,97437.00
2018-06-09T10:07:00.675Z,97437.00
2018-06-09T10:09:42.256Z,97436.00
2018-06-09T10:12:27.000Z,97432.00
2018-06-09T10:15:07.028Z,97425.00
2018-06-09T10:17:47.782Z,97422.00
2018-06-09T10:20:33.736Z,97422.00
2018-06-09T10:23:17.103Z,97419.00
2018-06-09T11:34:29.812Z,97353.00
2018-06-09T11:37:11.734Z,97350.00
2018-06-09T11:39:49.339Z,97347.00
2018-06-09T11:42:36.590Z,97344.00
2018-06-09T11:45:22.153Z,97342.00
2018-06-09T11:48:00.194Z,97336.00
2018-06-09T11:50:39.185Z,97335.00
2018-06-09T11:53:19.754Z,97333.00
2018-06-09T11:56:05.931Z,97327.00
2018-06-09T11:58:47.829Z,97332.00
2018-06-09T12:01:26.561Z,97322.00
2018-06-09T12:04:11.153Z,97326.00
2018-06-09T12:06:54.556Z,97316.00
2018-06-09T12:09:38.433Z,97315.00
2018-06-09T12:12:19.298Z,97312.00
2018-06-09T12:14:55.393Z,97304.00
2018-06-09T12:17:35.616Z,97304.00
2018-06-09T12:20:16.356Z,97293.00
2018-06-09T12:22:53.710Z,97294.00
2018-06-09T12:25:36.274Z,97298.00
2018-06-09T12:28:17.195Z,97306.00
2018-06-09T12:30:55.748Z,97309.00
2018-06-09T12:33:37.789Z,97306.00
2018-06-09T12:36:17.212Z,97310.00
2018-06-09T12:38:59.499Z,97305.00
2018-06-09T12:41:42.191Z,97304.00
2018-06-09T12:44:21.899Z,97302.00
2018-06-09T12:47:03.489Z,97303.00
2018-06-09T12:49:46.795Z,97307.00
2018-06-09T12:52:28.835Z,97304.00
2018-06-09T12:55:07.269Z,97308.00
2018-06-09T12:57:45.755Z,97310.00
2018-06-09T13:00:25.113Z,97300.00
2018-06-09T13:03:09.734Z,97302.00
2018-06-09T13:05:47.779Z,97311.00
2018-06-09T13:08:26.232Z,97308.00
2018-06-09T13:11:09.840Z,97311.00
2018-06-09T13:13:55.154Z,97319.00
2018-06-09T13:16:35.459Z,97329.00
2018-06-09T13:19:15.274Z,97343.00
2018-06-09T13:21:58.013Z,97344.00
2018-06-09T13:24:40.853Z,97340.00
2018-06-09T13:27:21.715Z,97352.00
2018-06-09T13:30:03.293Z,97360.00
2018-06-09T13:32:45.561Z,97352.00
2018-06-09T13:35:24.433Z,97355.00
2018-06-09T13:38:03.074Z,97373.00
2018-06-09T13:40:48.172Z,97404.00
2018-06-09T13:43:27.716Z,97416.00
2018-06-09T13:46:06.396Z,97410.00
2018-06-09T13:48:47.860Z,97403.00
2018-06-09T13:51:27.280Z,97417.00
2018-06-09T13:54:06.177Z,97438.00
2018-06-09T13:56:49.909Z,97448.00
2018-06-09T13:59:27.699Z,97448.00
2018-06-09T14:02:07.837Z,97451.00
2018-06-09T14:04:51.229Z,97465.00
2018-06-09T14:07:32.570Z,97469.00
2018-06-09T14:10:12.995Z,97474.00
2018-06-09T14:12:56.353Z,97491.00
2018-06-09T14:15:37.991Z,97495.00
2018-06-09T14:18:18.579Z,97504.00
2018-06-09T14:20:57.522Z,97512.00
2018-06-09T14:23:38.993Z,97529.00
2018-06-09T14:26:20.934Z,97544.00
2018-06-09T14:28:59.272Z,97553.00
2018-06-09T14:31:47.470Z,97554.00
2018-06-09T14:34:30.591Z,97548.00
2018-06-09T14:37:17.468Z,97540.00
2018-06-09T14:39:56.621Z,97535.00
2018-06-09T14:42:35.593Z,97533.00
2018-06-09T14:45:18.872Z,97542.00
2018-06-09T14:48:00.752Z,97551.00
2018-06-09T14:50:40.335Z,97537.00
2018-06-09T14:53:21.972Z,97527.00
2018-06-09T14:56:02.935Z,97518.00
2018-06-09T14:58:44.381Z,97515.00
2018-06-09T15:01:26.478Z,97516.00
2018-06-09T15:04:09.193Z,97517.00
2018-06-09T15:06:47.750Z,97513.00
2018-06-09T15:09:30.876Z,97513.00
2018-06-09T15:12:14.053Z,97516.00
2018-06-09T15:14:57.891Z,97517.00
2018-06-09T15:17:39.654Z,97517.00
2018-06-09T15:20:17.264Z,97521.00
2018-06-09T15:23:00.970Z,97523.00
2018-06-09T15:25:41.796Z,97525.00
2018-06-09T15:28:25.261Z,97519.00
2018-06-09T15:31:11.679Z,97511.00
2018-06-09T15:33:52.674Z,97502.00
2018-06-09T15:36:30.911Z,97504.00
2018-06-09T15:39:12.173Z,97503.00
2018-06-09T15:41:59.271Z,97500.00
2018-06-09T15:44:40.934Z,97498.00
2018-06-09T15:47:20.987Z,97486.00
2018-06-09T15:50:01.633Z,97479.00
2018-06-09T15:52:40.812Z,97471.00
2018-06-09T15:55:23.136Z,97476.00
2018-06-09T15:58:08.112Z,97464.00
2018-06-09T16:00:47.733Z,97469.00
2018-06-09T17:26:46.483Z,97508.00
2018-06-09T17:29:26.119Z,97521.00
2018-06-09T17:32:08.942Z,97515.00
2018-06-09T17:34:53.542Z,97533.00
2018-06-09T17:37:37.758Z,97524.00
2018-06-09T17:40:17.139Z,97527.00
2018-06-09T17:42:59.753Z,97516.00
2018-06-09T17:45:38.240Z,97503.00
2018-06-09T17:48:21.465Z,97505.00
2018-06-09T17:51:02.861Z,97500.00
2018-06-09T17:53:43.978Z,97495.00
2018-06-09T17:56:27.018Z,97491.00
2018-06-09T17:59:08.319Z,97495.00
2018-06-09T18:01:51.857Z,97494.00
2018-06-09T18:04:32.106Z,97491.00
2018-06-09T18:07:13.142Z,97491.00
2018-06-09T18:09:50.639Z,97489.00
2018-06-09T18:12:33.882Z,97483.00
2018-06-09T18:15:16.644Z,97473.00
2018-06-09T18:17:58.760Z,97468.00
2018-06-09T20:01:54.583Z,97589.00
2018-06-09T20:04:36.238Z,97593.00
2018-06-09T20:07:17.218Z,97603.00
2018-06-09T20:10:00.101Z,97603.00
2018-06-09T20:12:40.818Z,97601.00
2018-06-09T20:15:20.817Z,97602.00
2018-06-09T20:17:58.908Z,97602.00
2018-06-09T20:20:40.163Z,97606.00
2018-06-09T20:23:19.459Z,97605.00
2018-06-09T20:25:57.918Z,97605.00
2018-06-09T20:28:37.739Z,97604.00
2018-06-09T20:31:21.042Z,97612.00
2018-06-09T20:34:02.202Z,97616.00
2018-06-09T20:36:41.001Z,97623.00
2018-06-09T20:39:22.820Z,97632.00
2018-06-09T20:42:00.643Z,97636.00
2018-06-09T20:44:43.139Z,97644.00
2018-06-09T20:47:26.579Z,97649.00
2018-06-09T20:50:06.662Z,97655.00
2018-06-09T20:52:48.219Z,97658.00
2018-06-09T20:55:31.220Z,97653.00
2018-06-09T20:58:09.058Z,97656.00
2018-06-09T21:00:52.261Z,97653.00
2018-06-09T21:03:32.342Z,97655.00
2018-06-09T22:33:32.416Z,97619.00
2018-06-09T22:36:15.282Z,97613.00
2018-06-09T22:38:56.356Z,97622.00
2018-06-09T22:41:38.323Z,97617.00
2018-06-09T22:44:20.396Z,97617.00
2018-06-09T22:46:59.660Z,97608.00
